sensor_id;sensor_type;location;lat;lon;timestamp;P1;durP1;ratioP1;P2;durP2;ratioP2
47329;SDS011;33060;50.178;7.570;2023-12-20T00:01:59;1.55;;;0.30;;
47329;SDS011;33060;50.178;7.570;2023-12-20T00:06:52;1.92;;;0.43;;
47329;SDS011;33060;50.178;7.570;2023-12-20T00:09:19;1.92;;;0.32;;
47329;SDS011;33060;50.178;7.570;2023-12-20T00:11:46;2.05;;;0.30;;
47329;SDS011;33060;50.178;7.570;2023-12-20T00:14:12;1.45;;;0.22;;
47329;SDS011;33060;50.178;7.570;2023-12-20T00:16:39;1.35;;;0.20;;
47329;SDS011;33060;50.178;7.570;2023-12-20T00:19:06;1.65;;;0.20;;
47329;SDS011;33060;50.178;7.570;2023-12-20T00:23:59;1.60;;;0.20;;
47329;SDS011;33060;50.178;7.570;2023-12-20T00:26:26;1.50;;;0.38;;
47329;SDS011;33060;50.178;7.570;2023-12-20T00:28:55;2.22;;;0.22;;
47329;SDS011;33060;50.178;7.570;2023-12-20T00:31:21;2.17;;;0.30;;
47329;SDS011;33060;50.178;7.570;2023-12-20T00:33:48;2.00;;;0.43;;
47329;SDS011;33060;50.178;7.570;2023-12-20T00:36:15;1.80;;;0.43;;
47329;SDS011;33060;50.178;7.570;2023-12-20T00:38:41;1.90;;;0.30;;
47329;SDS011;33060;50.178;7.570;2023-12-20T00:41:08;1.95;;;0.20;;
47329;SDS011;33060;50.178;7.570;2023-12-20T00:43:35;2.25;;;0.40;;
47329;SDS011;33060;50.178;7.570;2023-12-20T00:46:02;2.83;;;0.70;;
47329;SDS011;33060;50.178;7.570;2023-12-20T00:50:57;2.22;;;0.63;;
47329;SDS011;33060;50.178;7.570;2023-12-20T00:53:24;2.03;;;0.50;;
47329;SDS011;33060;50.178;7.570;2023-12-20T00:55:50;2.13;;;0.57;;
47329;SDS011;33060;50.178;7.570;2023-12-20T00:58:17;1.65;;;0.50;;
47329;SDS011;33060;50.178;7.570;2023-12-20T01:00:44;2.10;;;0.70;;
47329;SDS011;33060;50.178;7.570;2023-12-20T01:03:11;2.45;;;0.73;;
47329;SDS011;33060;50.178;7.570;2023-12-20T01:08:04;2.08;;;0.60;;
47329;SDS011;33060;50.178;7.570;2023-12-20T01:12:58;3.00;;;0.98;;
47329;SDS011;33060;50.178;7.570;2023-12-20T01:15:25;2.28;;;0.68;;
47329;SDS011;33060;50.178;7.570;2023-12-20T01:17:51;2.42;;;0.73;;
47329;SDS011;33060;50.178;7.570;2023-12-20T01:20:18;2.60;;;1.10;;
47329;SDS011;33060;50.178;7.570;2023-12-20T01:22:46;2.28;;;0.65;;
47329;SDS011;33060;50.178;7.570;2023-12-20T01:25:13;2.97;;;1.20;;
47329;SDS011;33060;50.178;7.570;2023-12-20T01:27:40;2.38;;;0.75;;
47329;SDS011;33060;50.178;7.570;2023-12-20T01:30:07;3.03;;;0.90;;
47329;SDS011;33060;50.178;7.570;2023-12-20T01:32:34;2.70;;;0.88;;
47329;SDS011;33060;50.178;7.570;2023-12-20T01:35:00;2.78;;;1.10;;
47329;SDS011;33060;50.178;7.570;2023-12-20T01:37:29;2.45;;;0.80;;
47329;SDS011;33060;50.178;7.570;2023-12-20T01:39:56;2.63;;;0.85;;
47329;SDS011;33060;50.178;7.570;2023-12-20T01:44:49;2.70;;;1.00;;
47329;SDS011;33060;50.178;7.570;2023-12-20T01:47:22;2.58;;;1.08;;
47329;SDS011;33060;50.178;7.570;2023-12-20T01:49:49;3.33;;;0.98;;
47329;SDS011;33060;50.178;7.570;2023-12-20T01:52:16;2.42;;;0.70;;
47329;SDS011;33060;50.178;7.570;2023-12-20T01:54:43;3.10;;;1.17;;
47329;SDS011;33060;50.178;7.570;2023-12-20T01:57:10;3.40;;;1.40;;
47329;SDS011;33060;50.178;7.570;2023-12-20T01:59:39;2.92;;;1.13;;
47329;SDS011;33060;50.178;7.570;2023-12-20T02:02:06;3.55;;;1.83;;
47329;SDS011;33060;50.178;7.570;2023-12-20T02:04:34;4.43;;;1.83;;
47329;SDS011;33060;50.178;7.570;2023-12-20T02:07:01;4.63;;;2.03;;
47329;SDS011;33060;50.178;7.570;2023-12-20T02:09:29;3.92;;;1.92;;
47329;SDS011;33060;50.178;7.570;2023-12-20T02:11:56;4.32;;;2.17;;
47329;SDS011;33060;50.178;7.570;2023-12-20T02:14:23;3.58;;;1.75;;
47329;SDS011;33060;50.178;7.570;2023-12-20T02:16:50;5.32;;;2.50;;
47329;SDS011;33060;50.178;7.570;2023-12-20T02:19:16;4.78;;;1.90;;
47329;SDS011;33060;50.178;7.570;2023-12-20T02:21:44;4.75;;;2.13;;
47329;SDS011;33060;50.178;7.570;2023-12-20T02:24:10;4.10;;;2.00;;
47329;SDS011;33060;50.178;7.570;2023-12-20T02:26:37;4.70;;;2.40;;
47329;SDS011;33060;50.178;7.570;2023-12-20T02:29:04;4.40;;;2.30;;
47329;SDS011;33060;50.178;7.570;2023-12-20T02:31:31;4.38;;;2.00;;
47329;SDS011;33060;50.178;7.570;2023-12-20T02:33:59;4.60;;;1.90;;
47329;SDS011;33060;50.178;7.570;2023-12-20T02:36:26;4.63;;;1.95;;
47329;SDS011;33060;50.178;7.570;2023-12-20T02:38:52;4.60;;;2.30;;
47329;SDS011;33060;50.178;7.570;2023-12-20T02:41:19;4.47;;;2.03;;
47329;SDS011;33060;50.178;7.570;2023-12-20T02:43:46;4.40;;;2.13;;
47329;SDS011;33060;50.178;7.570;2023-12-20T02:46:13;5.25;;;2.40;;
47329;SDS011;33060;50.178;7.570;2023-12-20T02:48:42;4.18;;;2.10;;
47329;SDS011;33060;50.178;7.570;2023-12-20T02:51:09;5.32;;;2.67;;
47329;SDS011;33060;50.178;7.570;2023-12-20T02:53:35;3.63;;;1.73;;
47329;SDS011;33060;50.178;7.570;2023-12-20T02:56:02;6.07;;;2.92;;
47329;SDS011;33060;50.178;7.570;2023-12-20T02:58:29;4.70;;;2.50;;
47329;SDS011;33060;50.178;7.570;2023-12-20T03:00:56;4.47;;;2.05;;
47329;SDS011;33060;50.178;7.570;2023-12-20T03:03:22;4.53;;;1.80;;
47329;SDS011;33060;50.178;7.570;2023-12-20T03:05:49;3.95;;;2.00;;
47329;SDS011;33060;50.178;7.570;2023-12-20T03:08:16;3.90;;;1.90;;
47329;SDS011;33060;50.178;7.570;2023-12-20T03:10:42;4.07;;;1.80;;
47329;SDS011;33060;50.178;7.570;2023-12-20T03:13:09;4.85;;;2.13;;
47329;SDS011;33060;50.178;7.570;2023-12-20T03:15:36;4.18;;;2.25;;
47329;SDS011;33060;50.178;7.570;2023-12-20T03:18:04;5.32;;;2.72;;
47329;SDS011;33060;50.178;7.570;2023-12-20T03:20:30;4.15;;;2.15;;
47329;SDS011;33060;50.178;7.570;2023-12-20T03:23:00;4.25;;;2.15;;
47329;SDS011;33060;50.178;7.570;2023-12-20T03:25:27;3.55;;;1.58;;
47329;SDS011;33060;50.178;7.570;2023-12-20T03:27:54;3.75;;;1.33;;
47329;SDS011;33060;50.178;7.570;2023-12-20T03:30:21;3.67;;;1.23;;
47329;SDS011;33060;50.178;7.570;2023-12-20T03:32:47;3.63;;;1.20;;
47329;SDS011;33060;50.178;7.570;2023-12-20T03:35:14;2.42;;;1.00;;
47329;SDS011;33060;50.178;7.570;2023-12-20T03:37:41;3.28;;;1.30;;
47329;SDS011;33060;50.178;7.570;2023-12-20T03:42:35;3.15;;;0.93;;
47329;SDS011;33060;50.178;7.570;2023-12-20T03:45:01;4.45;;;1.23;;
47329;SDS011;33060;50.178;7.570;2023-12-20T03:47:28;5.40;;;1.23;;
47329;SDS011;33060;50.178;7.570;2023-12-20T03:49:55;6.00;;;0.82;;
47329;SDS011;33060;50.178;7.570;2023-12-20T03:52:22;3.80;;;1.27;;
47329;SDS011;33060;50.178;7.570;2023-12-20T03:54:49;4.13;;;1.25;;
47329;SDS011;33060;50.178;7.570;2023-12-20T03:57:15;3.35;;;1.00;;
47329;SDS011;33060;50.178;7.570;2023-12-20T03:59:42;3.70;;;0.85;;
47329;SDS011;33060;50.178;7.570;2023-12-20T04:02:09;5.68;;;0.90;;
47329;SDS011;33060;50.178;7.570;2023-12-20T04:04:35;2.97;;;0.93;;
47329;SDS011;33060;50.178;7.570;2023-12-20T04:09:29;6.35;;;0.90;;
47329;SDS011;33060;50.178;7.570;2023-12-20T04:11:56;4.10;;;1.00;;
47329;SDS011;33060;50.178;7.570;2023-12-20T04:14:23;4.25;;;1.15;;
47329;SDS011;33060;50.178;7.570;2023-12-20T04:16:51;5.07;;;1.35;;
47329;SDS011;33060;50.178;7.570;2023-12-20T04:19:18;4.85;;;1.40;;
47329;SDS011;33060;50.178;7.570;2023-12-20T04:21:45;3.95;;;1.20;;
47329;SDS011;33060;50.178;7.570;2023-12-20T04:24:12;6.15;;;1.38;;
47329;SDS011;33060;50.178;7.570;2023-12-20T04:26:39;5.60;;;1.23;;
47329;SDS011;33060;50.178;7.570;2023-12-20T04:29:05;3.95;;;1.20;;
47329;SDS011;33060;50.178;7.570;2023-12-20T04:31:32;4.40;;;1.90;;
47329;SDS011;33060;50.178;7.570;2023-12-20T04:33:59;4.95;;;1.98;;
47329;SDS011;33060;50.178;7.570;2023-12-20T04:36:26;6.82;;;1.85;;
47329;SDS011;33060;50.178;7.570;2023-12-20T04:38:53;3.88;;;1.30;;
47329;SDS011;33060;50.178;7.570;2023-12-20T04:43:46;3.70;;;1.25;;
47329;SDS011;33060;50.178;7.570;2023-12-20T04:46:13;3.15;;;1.23;;
47329;SDS011;33060;50.178;7.570;2023-12-20T04:48:40;3.80;;;1.33;;
47329;SDS011;33060;50.178;7.570;2023-12-20T04:51:07;5.70;;;1.33;;
47329;SDS011;33060;50.178;7.570;2023-12-20T04:53:33;5.68;;;1.38;;
47329;SDS011;33060;50.178;7.570;2023-12-20T04:56:00;6.13;;;1.50;;
47329;SDS011;33060;50.178;7.570;2023-12-20T04:58:27;3.92;;;1.45;;
47329;SDS011;33060;50.178;7.570;2023-12-20T05:00:53;3.80;;;1.23;;
47329;SDS011;33060;50.178;7.570;2023-12-20T05:03:20;3.22;;;1.27;;
47329;SDS011;33060;50.178;7.570;2023-12-20T05:05:47;4.80;;;1.73;;
47329;SDS011;33060;50.178;7.570;2023-12-20T05:08:14;3.45;;;0.85;;
47329;SDS011;33060;50.178;7.570;2023-12-20T05:10:42;3.55;;;0.85;;
47329;SDS011;33060;50.178;7.570;2023-12-20T05:13:08;5.38;;;1.35;;
47329;SDS011;33060;50.178;7.570;2023-12-20T05:15:35;5.63;;;1.40;;
47329;SDS011;33060;50.178;7.570;2023-12-20T05:18:02;3.90;;;1.33;;
47329;SDS011;33060;50.178;7.570;2023-12-20T05:22:55;4.35;;;1.02;;
47329;SDS011;33060;50.178;7.570;2023-12-20T05:25:22;3.75;;;0.93;;
47329;SDS011;33060;50.178;7.570;2023-12-20T05:27:49;4.65;;;0.80;;
47329;SDS011;33060;50.178;7.570;2023-12-20T05:30:16;4.35;;;0.93;;
47329;SDS011;33060;50.178;7.570;2023-12-20T05:32:42;3.50;;;1.10;;
47329;SDS011;33060;50.178;7.570;2023-12-20T05:37:36;7.45;;;1.35;;
47329;SDS011;33060;50.178;7.570;2023-12-20T05:42:30;6.07;;;1.30;;
47329;SDS011;33060;50.178;7.570;2023-12-20T05:44:57;5.18;;;1.33;;
47329;SDS011;33060;50.178;7.570;2023-12-20T05:47:31;8.50;;;1.63;;
47329;SDS011;33060;50.178;7.570;2023-12-20T05:52:24;4.22;;;0.90;;
47329;SDS011;33060;50.178;7.570;2023-12-20T05:54:51;3.83;;;1.15;;
47329;SDS011;33060;50.178;7.570;2023-12-20T05:57:18;5.00;;;1.08;;
47329;SDS011;33060;50.178;7.570;2023-12-20T05:59:45;5.57;;;1.10;;
47329;SDS011;33060;50.178;7.570;2023-12-20T06:02:11;3.55;;;1.00;;
47329;SDS011;33060;50.178;7.570;2023-12-20T06:04:41;3.72;;;0.98;;
47329;SDS011;33060;50.178;7.570;2023-12-20T06:07:13;4.90;;;1.25;;
47329;SDS011;33060;50.178;7.570;2023-12-20T06:09:40;4.40;;;0.68;;
47329;SDS011;33060;50.178;7.570;2023-12-20T06:14:34;3.70;;;0.77;;
47329;SDS011;33060;50.178;7.570;2023-12-20T06:17:01;3.10;;;0.52;;
47329;SDS011;33060;50.178;7.570;2023-12-20T06:19:28;4.38;;;0.82;;
47329;SDS011;33060;50.178;7.570;2023-12-20T06:21:55;4.38;;;1.05;;
47329;SDS011;33060;50.178;7.570;2023-12-20T06:24:21;3.83;;;0.55;;
47329;SDS011;33060;50.178;7.570;2023-12-20T06:26:48;5.07;;;1.10;;
47329;SDS011;33060;50.178;7.570;2023-12-20T06:29:15;5.75;;;1.75;;
47329;SDS011;33060;50.178;7.570;2023-12-20T06:31:41;5.45;;;1.67;;
47329;SDS011;33060;50.178;7.570;2023-12-20T06:34:08;5.93;;;1.38;;
47329;SDS011;33060;50.178;7.570;2023-12-20T06:36:35;3.80;;;1.08;;
47329;SDS011;33060;50.178;7.570;2023-12-20T06:39:02;8.60;;;1.48;;
47329;SDS011;33060;50.178;7.570;2023-12-20T06:41:30;6.18;;;1.25;;
47329;SDS011;33060;50.178;7.570;2023-12-20T06:43:57;5.70;;;1.45;;
47329;SDS011;33060;50.178;7.570;2023-12-20T06:46:24;4.10;;;0.85;;
47329;SDS011;33060;50.178;7.570;2023-12-20T06:48:51;5.50;;;1.30;;
47329;SDS011;33060;50.178;7.570;2023-12-20T06:51:18;6.38;;;1.17;;
47329;SDS011;33060;50.178;7.570;2023-12-20T06:53:46;8.50;;;1.67;;
47329;SDS011;33060;50.178;7.570;2023-12-20T06:56:13;5.38;;;1.30;;
47329;SDS011;33060;50.178;7.570;2023-12-20T06:58:44;6.75;;;1.40;;
47329;SDS011;33060;50.178;7.570;2023-12-20T07:03:39;6.53;;;1.23;;
47329;SDS011;33060;50.178;7.570;2023-12-20T07:06:06;6.38;;;1.33;;
47329;SDS011;33060;50.178;7.570;2023-12-20T07:08:33;9.52;;;1.60;;
47329;SDS011;33060;50.178;7.570;2023-12-20T07:11:00;4.15;;;1.48;;
47329;SDS011;33060;50.178;7.570;2023-12-20T07:13:27;11.75;;;1.65;;
47329;SDS011;33060;50.178;7.570;2023-12-20T07:15:54;8.45;;;1.60;;
47329;SDS011;33060;50.178;7.570;2023-12-20T07:18:20;8.40;;;1.92;;
47329;SDS011;33060;50.178;7.570;2023-12-20T07:20:47;5.38;;;1.40;;
47329;SDS011;33060;50.178;7.570;2023-12-20T07:23:14;5.57;;;1.63;;
47329;SDS011;33060;50.178;7.570;2023-12-20T07:25:41;7.82;;;1.52;;
47329;SDS011;33060;50.178;7.570;2023-12-20T07:28:07;5.95;;;1.80;;
47329;SDS011;33060;50.178;7.570;2023-12-20T07:30:34;6.78;;;1.55;;
47329;SDS011;33060;50.178;7.570;2023-12-20T07:33:01;5.65;;;1.58;;
47329;SDS011;33060;50.178;7.570;2023-12-20T07:35:29;6.75;;;1.45;;
47329;SDS011;33060;50.178;7.570;2023-12-20T07:40:22;11.52;;;2.15;;
47329;SDS011;33060;50.178;7.570;2023-12-20T07:42:50;7.22;;;1.55;;
47329;SDS011;33060;50.178;7.570;2023-12-20T07:45:17;5.78;;;1.80;;
47329;SDS011;33060;50.178;7.570;2023-12-20T07:47:44;7.45;;;1.80;;
47329;SDS011;33060;50.178;7.570;2023-12-20T07:50:11;6.50;;;2.03;;
47329;SDS011;33060;50.178;7.570;2023-12-20T07:52:38;6.65;;;1.90;;
47329;SDS011;33060;50.178;7.570;2023-12-20T07:55:04;6.68;;;1.92;;
47329;SDS011;33060;50.178;7.570;2023-12-20T07:57:32;6.07;;;1.85;;
47329;SDS011;33060;50.178;7.570;2023-12-20T07:59:58;7.60;;;2.80;;
47329;SDS011;33060;50.178;7.570;2023-12-20T08:02:25;6.28;;;2.13;;
47329;SDS011;33060;50.178;7.570;2023-12-20T08:04:52;5.65;;;1.80;;
47329;SDS011;33060;50.178;7.570;2023-12-20T08:07:19;8.70;;;2.67;;
47329;SDS011;33060;50.178;7.570;2023-12-20T08:09:46;9.65;;;3.03;;
47329;SDS011;33060;50.178;7.570;2023-12-20T08:12:12;7.47;;;2.55;;
47329;SDS011;33060;50.178;7.570;2023-12-20T08:14:39;8.80;;;2.80;;
47329;SDS011;33060;50.178;7.570;2023-12-20T08:17:06;7.00;;;2.35;;
47329;SDS011;33060;50.178;7.570;2023-12-20T08:19:33;8.07;;;2.90;;
47329;SDS011;33060;50.178;7.570;2023-12-20T08:21:59;7.07;;;2.83;;
47329;SDS011;33060;50.178;7.570;2023-12-20T08:24:26;6.30;;;2.50;;
47329;SDS011;33060;50.178;7.570;2023-12-20T08:26:53;5.53;;;2.15;;
47329;SDS011;33060;50.178;7.570;2023-12-20T08:29:20;10.23;;;2.30;;
47329;SDS011;33060;50.178;7.570;2023-12-20T08:31:51;6.22;;;2.75;;
47329;SDS011;33060;50.178;7.570;2023-12-20T08:34:18;10.05;;;2.55;;
47329;SDS011;33060;50.178;7.570;2023-12-20T08:36:45;8.60;;;2.72;;
47329;SDS011;33060;50.178;7.570;2023-12-20T08:39:12;7.53;;;2.65;;
47329;SDS011;33060;50.178;7.570;2023-12-20T08:41:39;8.65;;;3.00;;
47329;SDS011;33060;50.178;7.570;2023-12-20T08:44:06;7.05;;;3.28;;
47329;SDS011;33060;50.178;7.570;2023-12-20T08:46:32;9.20;;;2.60;;
47329;SDS011;33060;50.178;7.570;2023-12-20T08:48:59;9.60;;;2.65;;
47329;SDS011;33060;50.178;7.570;2023-12-20T08:51:27;8.20;;;2.60;;
47329;SDS011;33060;50.178;7.570;2023-12-20T08:56:21;6.97;;;2.63;;
47329;SDS011;33060;50.178;7.570;2023-12-20T08:58:47;10.90;;;2.92;;
47329;SDS011;33060;50.178;7.570;2023-12-20T09:01:14;9.35;;;2.40;;
47329;SDS011;33060;50.178;7.570;2023-12-20T09:03:41;6.03;;;2.28;;
47329;SDS011;33060;50.178;7.570;2023-12-20T09:06:08;10.55;;;3.10;;
47329;SDS011;33060;50.178;7.570;2023-12-20T09:08:35;7.38;;;2.03;;
47329;SDS011;33060;50.178;7.570;2023-12-20T09:11:02;7.68;;;2.65;;
47329;SDS011;33060;50.178;7.570;2023-12-20T09:13:29;6.95;;;2.75;;
47329;SDS011;33060;50.178;7.570;2023-12-20T09:15:58;9.05;;;2.92;;
47329;SDS011;33060;50.178;7.570;2023-12-20T09:18:25;7.03;;;2.58;;
47329;SDS011;33060;50.178;7.570;2023-12-20T09:23:18;11.88;;;2.78;;
47329;SDS011;33060;50.178;7.570;2023-12-20T09:25:45;11.13;;;3.55;;
47329;SDS011;33060;50.178;7.570;2023-12-20T09:28:12;10.13;;;2.58;;
47329;SDS011;33060;50.178;7.570;2023-12-20T09:30:39;8.57;;;3.00;;
47329;SDS011;33060;50.178;7.570;2023-12-20T09:33:07;9.48;;;2.67;;
47329;SDS011;33060;50.178;7.570;2023-12-20T09:35:34;8.98;;;2.17;;
47329;SDS011;33060;50.178;7.570;2023-12-20T09:38:02;6.65;;;2.30;;
47329;SDS011;33060;50.178;7.570;2023-12-20T09:40:28;12.32;;;3.05;;
47329;SDS011;33060;50.178;7.570;2023-12-20T09:42:58;7.22;;;2.78;;
47329;SDS011;33060;50.178;7.570;2023-12-20T09:45:30;11.43;;;2.90;;
47329;SDS011;33060;50.178;7.570;2023-12-20T09:47:58;8.25;;;3.15;;
47329;SDS011;33060;50.178;7.570;2023-12-20T09:50:26;8.05;;;2.55;;
47329;SDS011;33060;50.178;7.570;2023-12-20T09:52:54;7.30;;;3.03;;
47329;SDS011;33060;50.178;7.570;2023-12-20T09:55:25;8.40;;;2.83;;
47329;SDS011;33060;50.178;7.570;2023-12-20T09:57:54;11.00;;;2.85;;
47329;SDS011;33060;50.178;7.570;2023-12-20T10:00:21;6.72;;;2.60;;
47329;SDS011;33060;50.178;7.570;2023-12-20T10:02:57;7.55;;;2.70;;
47329;SDS011;33060;50.178;7.570;2023-12-20T10:05:29;9.75;;;3.55;;
47329;SDS011;33060;50.178;7.570;2023-12-20T10:07:58;8.73;;;3.22;;
47329;SDS011;33060;50.178;7.570;2023-12-20T10:10:26;6.72;;;2.10;;
47329;SDS011;33060;50.178;7.570;2023-12-20T10:13:09;6.63;;;2.60;;
47329;SDS011;33060;50.178;7.570;2023-12-20T10:15:37;5.97;;;2.10;;
47329;SDS011;33060;50.178;7.570;2023-12-20T10:18:05;5.65;;;2.42;;
47329;SDS011;33060;50.178;7.570;2023-12-20T10:20:32;11.23;;;3.05;;
47329;SDS011;33060;50.178;7.570;2023-12-20T10:23:00;8.18;;;3.13;;
47329;SDS011;33060;50.178;7.570;2023-12-20T10:25:28;9.27;;;2.72;;
47329;SDS011;33060;50.178;7.570;2023-12-20T10:28:14;9.35;;;2.47;;
47329;SDS011;33060;50.178;7.570;2023-12-20T10:30:46;8.02;;;3.08;;
47329;SDS011;33060;50.178;7.570;2023-12-20T10:33:13;6.60;;;2.35;;
47329;SDS011;33060;50.178;7.570;2023-12-20T10:35:51;8.95;;;2.47;;
47329;SDS011;33060;50.178;7.570;2023-12-20T10:38:18;8.88;;;3.35;;
47329;SDS011;33060;50.178;7.570;2023-12-20T10:40:45;7.78;;;2.22;;
47329;SDS011;33060;50.178;7.570;2023-12-20T10:43:12;10.60;;;3.25;;
47329;SDS011;33060;50.178;7.570;2023-12-20T10:45:40;6.53;;;2.17;;
47329;SDS011;33060;50.178;7.570;2023-12-20T10:48:09;10.23;;;2.83;;
47329;SDS011;33060;50.178;7.570;2023-12-20T10:50:38;7.00;;;2.20;;
47329;SDS011;33060;50.178;7.570;2023-12-20T10:53:05;7.18;;;2.25;;
47329;SDS011;33060;50.178;7.570;2023-12-20T10:55:33;6.93;;;2.10;;
47329;SDS011;33060;50.178;7.570;2023-12-20T10:58:01;11.30;;;3.53;;
47329;SDS011;33060;50.178;7.570;2023-12-20T11:00:33;10.23;;;2.90;;
47329;SDS011;33060;50.178;7.570;2023-12-20T11:03:07;8.60;;;2.72;;
47329;SDS011;33060;50.178;7.570;2023-12-20T11:05:38;10.45;;;2.65;;
47329;SDS011;33060;50.178;7.570;2023-12-20T11:08:17;5.72;;;2.22;;
47329;SDS011;33060;50.178;7.570;2023-12-20T11:10:51;8.32;;;3.10;;
47329;SDS011;33060;50.178;7.570;2023-12-20T11:13:22;7.00;;;2.35;;
47329;SDS011;33060;50.178;7.570;2023-12-20T11:15:53;11.68;;;2.78;;
47329;SDS011;33060;50.178;7.570;2023-12-20T11:18:20;6.68;;;2.28;;
47329;SDS011;33060;50.178;7.570;2023-12-20T11:20:55;8.10;;;3.13;;
47329;SDS011;33060;50.178;7.570;2023-12-20T11:23:29;7.50;;;3.20;;
47329;SDS011;33060;50.178;7.570;2023-12-20T11:25:57;10.07;;;2.35;;
47329;SDS011;33060;50.178;7.570;2023-12-20T11:28:26;7.30;;;2.45;;
47329;SDS011;33060;50.178;7.570;2023-12-20T11:30:54;9.30;;;2.65;;
47329;SDS011;33060;50.178;7.570;2023-12-20T11:33:23;7.10;;;2.08;;
47329;SDS011;33060;50.178;7.570;2023-12-20T11:35:55;8.85;;;2.25;;
47329;SDS011;33060;50.178;7.570;2023-12-20T11:38:23;5.80;;;2.33;;
47329;SDS011;33060;50.178;7.570;2023-12-20T11:40:51;9.73;;;2.00;;
47329;SDS011;33060;50.178;7.570;2023-12-20T11:43:36;9.18;;;2.33;;
47329;SDS011;33060;50.178;7.570;2023-12-20T11:46:09;6.72;;;2.20;;
47329;SDS011;33060;50.178;7.570;2023-12-20T11:48:37;8.68;;;1.88;;
47329;SDS011;33060;50.178;7.570;2023-12-20T11:51:09;6.90;;;1.80;;
47329;SDS011;33060;50.178;7.570;2023-12-20T11:53:38;7.18;;;2.40;;
47329;SDS011;33060;50.178;7.570;2023-12-20T11:56:06;6.63;;;1.85;;
47329;SDS011;33060;50.178;7.570;2023-12-20T11:58:35;7.28;;;2.33;;
47329;SDS011;33060;50.178;7.570;2023-12-20T12:01:02;11.27;;;2.08;;
47329;SDS011;33060;50.178;7.570;2023-12-20T12:03:32;10.07;;;2.45;;
47329;SDS011;33060;50.178;7.570;2023-12-20T12:05:59;6.70;;;2.55;;
47329;SDS011;33060;50.178;7.570;2023-12-20T12:08:28;7.30;;;2.08;;
47329;SDS011;33060;50.178;7.570;2023-12-20T12:10:55;9.77;;;3.10;;
47329;SDS011;33060;50.178;7.570;2023-12-20T12:13:23;7.63;;;2.47;;
47329;SDS011;33060;50.178;7.570;2023-12-20T12:15:54;6.35;;;2.17;;
47329;SDS011;33060;50.178;7.570;2023-12-20T12:18:21;7.28;;;3.53;;
47329;SDS011;33060;50.178;7.570;2023-12-20T12:20:49;8.00;;;2.60;;
47329;SDS011;33060;50.178;7.570;2023-12-20T12:23:22;14.25;;;3.35;;
47329;SDS011;33060;50.178;7.570;2023-12-20T12:25:53;10.00;;;3.13;;
47329;SDS011;33060;50.178;7.570;2023-12-20T12:28:25;5.97;;;2.10;;
47329;SDS011;33060;50.178;7.570;2023-12-20T12:30:58;8.40;;;2.53;;
47329;SDS011;33060;50.178;7.570;2023-12-20T12:33:26;7.47;;;2.50;;
47329;SDS011;33060;50.178;7.570;2023-12-20T12:35:54;9.75;;;2.55;;
47329;SDS011;33060;50.178;7.570;2023-12-20T12:38:22;9.10;;;2.95;;
47329;SDS011;33060;50.178;7.570;2023-12-20T12:40:50;10.60;;;2.67;;
47329;SDS011;33060;50.178;7.570;2023-12-20T12:43:20;7.85;;;2.88;;
47329;SDS011;33060;50.178;7.570;2023-12-20T12:45:50;9.23;;;2.55;;
47329;SDS011;33060;50.178;7.570;2023-12-20T12:48:17;6.47;;;2.85;;
47329;SDS011;33060;50.178;7.570;2023-12-20T12:50:48;11.27;;;3.92;;
47329;SDS011;33060;50.178;7.570;2023-12-20T12:53:16;13.65;;;3.42;;
47329;SDS011;33060;50.178;7.570;2023-12-20T12:55:43;8.88;;;2.50;;
47329;SDS011;33060;50.178;7.570;2023-12-20T12:58:10;10.55;;;2.90;;
47329;SDS011;33060;50.178;7.570;2023-12-20T13:00:37;11.93;;;3.28;;
47329;SDS011;33060;50.178;7.570;2023-12-20T13:03:04;7.93;;;2.88;;
47329;SDS011;33060;50.178;7.570;2023-12-20T13:05:31;8.15;;;2.97;;
47329;SDS011;33060;50.178;7.570;2023-12-20T13:08:02;8.40;;;2.63;;
47329;SDS011;33060;50.178;7.570;2023-12-20T13:12:56;8.30;;;2.40;;
47329;SDS011;33060;50.178;7.570;2023-12-20T13:15:23;8.80;;;2.60;;
47329;SDS011;33060;50.178;7.570;2023-12-20T13:17:49;6.65;;;2.60;;
47329;SDS011;33060;50.178;7.570;2023-12-20T13:20:17;7.47;;;3.10;;
47329;SDS011;33060;50.178;7.570;2023-12-20T13:22:44;7.88;;;2.20;;
47329;SDS011;33060;50.178;7.570;2023-12-20T13:25:11;9.82;;;1.95;;
47329;SDS011;33060;50.178;7.570;2023-12-20T13:30:05;8.50;;;2.58;;
47329;SDS011;33060;50.178;7.570;2023-12-20T13:32:32;6.30;;;1.70;;
47329;SDS011;33060;50.178;7.570;2023-12-20T13:37:26;7.45;;;1.50;;
47329;SDS011;33060;50.178;7.570;2023-12-20T13:39:52;5.13;;;1.67;;
47329;SDS011;33060;50.178;7.570;2023-12-20T13:42:19;6.20;;;1.65;;
47329;SDS011;33060;50.178;7.570;2023-12-20T13:44:46;9.48;;;2.28;;
47329;SDS011;33060;50.178;7.570;2023-12-20T13:47:17;8.52;;;1.73;;
47329;SDS011;33060;50.178;7.570;2023-12-20T13:49:55;5.07;;;1.50;;
47329;SDS011;33060;50.178;7.570;2023-12-20T13:52:22;6.80;;;1.98;;
47329;SDS011;33060;50.178;7.570;2023-12-20T13:54:49;5.75;;;1.30;;
47329;SDS011;33060;50.178;7.570;2023-12-20T13:57:16;3.70;;;1.00;;
47329;SDS011;33060;50.178;7.570;2023-12-20T13:59:46;6.57;;;2.03;;
47329;SDS011;33060;50.178;7.570;2023-12-20T14:02:14;5.85;;;1.08;;
47329;SDS011;33060;50.178;7.570;2023-12-20T14:04:42;6.70;;;1.40;;
47329;SDS011;33060;50.178;7.570;2023-12-20T14:07:09;3.70;;;1.02;;
47329;SDS011;33060;50.178;7.570;2023-12-20T14:09:39;5.15;;;0.93;;
47329;SDS011;33060;50.178;7.570;2023-12-20T14:12:12;6.47;;;1.52;;
47329;SDS011;33060;50.178;7.570;2023-12-20T14:14:39;6.03;;;1.55;;
47329;SDS011;33060;50.178;7.570;2023-12-20T14:17:06;8.15;;;2.03;;
47329;SDS011;33060;50.178;7.570;2023-12-20T14:19:33;6.60;;;1.80;;
47329;SDS011;33060;50.178;7.570;2023-12-20T14:24:30;9.63;;;1.58;;
47329;SDS011;33060;50.178;7.570;2023-12-20T14:26:57;4.20;;;1.30;;
47329;SDS011;33060;50.178;7.570;2023-12-20T14:29:25;6.10;;;1.67;;
47329;SDS011;33060;50.178;7.570;2023-12-20T14:31:52;6.93;;;1.95;;
47329;SDS011;33060;50.178;7.570;2023-12-20T14:34:19;6.82;;;1.30;;
47329;SDS011;33060;50.178;7.570;2023-12-20T14:36:46;8.60;;;1.27;;
47329;SDS011;33060;50.178;7.570;2023-12-20T14:39:13;6.32;;;1.83;;
47329;SDS011;33060;50.178;7.570;2023-12-20T14:44:06;5.22;;;1.10;;
47329;SDS011;33060;50.178;7.570;2023-12-20T14:46:33;8.93;;;1.15;;
47329;SDS011;33060;50.178;7.570;2023-12-20T14:49:00;6.07;;;1.10;;
47329;SDS011;33060;50.178;7.570;2023-12-20T14:51:29;7.20;;;1.38;;
47329;SDS011;33060;50.178;7.570;2023-12-20T14:53:55;6.10;;;1.92;;
47329;SDS011;33060;50.178;7.570;2023-12-20T14:56:25;6.85;;;1.70;;
47329;SDS011;33060;50.178;7.570;2023-12-20T14:58:52;5.97;;;2.17;;
47329;SDS011;33060;50.178;7.570;2023-12-20T15:01:19;7.85;;;1.50;;
47329;SDS011;33060;50.178;7.570;2023-12-20T15:03:50;8.38;;;1.65;;
47329;SDS011;33060;50.178;7.570;2023-12-20T15:06:17;5.72;;;1.70;;
47329;SDS011;33060;50.178;7.570;2023-12-20T15:08:44;7.78;;;2.03;;
47329;SDS011;33060;50.178;7.570;2023-12-20T15:11:10;4.00;;;1.17;;
47329;SDS011;33060;50.178;7.570;2023-12-20T15:13:37;4.63;;;1.15;;
47329;SDS011;33060;50.178;7.570;2023-12-20T15:16:04;5.10;;;1.25;;
47329;SDS011;33060;50.178;7.570;2023-12-20T15:18:32;5.55;;;1.40;;
47329;SDS011;33060;50.178;7.570;2023-12-20T15:20:59;10.35;;;1.98;;
47329;SDS011;33060;50.178;7.570;2023-12-20T15:23:26;6.53;;;1.83;;
47329;SDS011;33060;50.178;7.570;2023-12-20T15:25:55;9.05;;;1.83;;
47329;SDS011;33060;50.178;7.570;2023-12-20T15:30:48;6.55;;;1.73;;
47329;SDS011;33060;50.178;7.570;2023-12-20T15:33:15;6.93;;;1.60;;
47329;SDS011;33060;50.178;7.570;2023-12-20T15:38:08;8.90;;;2.80;;
47329;SDS011;33060;50.178;7.570;2023-12-20T15:40:35;7.55;;;1.88;;
47329;SDS011;33060;50.178;7.570;2023-12-20T15:43:02;7.25;;;2.00;;
47329;SDS011;33060;50.178;7.570;2023-12-20T15:45:30;6.35;;;1.70;;
47329;SDS011;33060;50.178;7.570;2023-12-20T15:47:56;6.20;;;2.08;;
47329;SDS011;33060;50.178;7.570;2023-12-20T15:50:23;5.07;;;1.17;;